Mekhanik Pogodin — UBFH6 — position and weather

sailwx.info

Track history (hours):
 
Tides and Currents Weather Stations Pressure Air Temp Water Temp Dewpoint Dewpoint Depression Visibility Wind Speed Wind Dir Waves Ship Positions

Mekhanik Pogodin

Last reported at 2018-Feb-16 15:33 UTC. Time now 2018-Feb-18 03:39 UTC.
Position N 45°33' E 036°44'.

Length 141 m; draft 3.2 m.

Type: Ship (hazmat cat B). MMSI: 273354720.

Date/timePositionNaut miles runAvg speedWind from/ knotsBaromVisibWave heightAir tempDewpointWater temp
2018-Feb-16 15:33N 45°33' E 036°44'1 8.8
2018-Feb-16 15:28N 45°32' E 036°43'4 8.7
2018-Feb-16 15:00N 45°29' E 036°40'1 1.1
2018-Feb-16 14:28N 45°28' E 036°39'0 0.0
2018-Feb-16 13:58N 45°28' E 036°39'0 0.0
2018-Feb-16 13:28N 45°28' E 036°39'0 0.0
2018-Feb-16 12:58N 45°28' E 036°39'1 1.2
2018-Feb-16 12:30N 45°28' E 036°40'4 7.7
2018-Feb-16 12:00N 45°24' E 036°41'4 7.3
2018-Feb-16 11:30N 45°21' E 036°38'4 8.8
2018-Feb-16 11:00N 45°19' E 036°33'4 8.0
2018-Feb-16 10:30N 45°16' E 036°29'3 6.4
2018-Feb-16 10:00N 45°13' E 036°29'2 4.5
2018-Feb-16 09:28N 45°11' E 036°30'0 0.0
2018-Feb-16 08:43N 45°11' E 036°30'0 0.0
2018-Feb-16 08:25N 45°11' E 036°30'0 0.0
2018-Feb-16 07:55N 45°11' E 036°30'0 0.0
2018-Feb-16 04:33N 45°11' E 036°30'0 2.7
2018-Feb-16 04:29N 45°11' E 036°30'2 0.1
2018-Feb-15 00:00N 45°12' E 036°28'5 7.7
2018-Feb-14 23:20N 45°17' E 036°29'3 9.3
2018-Feb-14 23:00N 45°19' E 036°32'510.6
2018-Feb-14 22:31N 45°21' E 036°39'3 5.6
2018-Feb-14 22:00N 45°24' E 036°40'2 4.3
2018-Feb-14 21:30N 45°26' E 036°41'3 5.4
2018-Feb-14 21:00N 45°28' E 036°38'1 0.8
2018-Feb-14 19:49N 45°29' E 036°37'0 0.0
2018-Feb-14 19:19N 45°29' E 036°37'0 0.0
2018-Feb-14 18:58N 45°29' E 036°37'0 0.0
2018-Feb-14 18:28N 45°29' E 036°37'0 0.0
2018-Feb-14 17:22N 45°29' E 036°37'0 0.0
2018-Feb-14 16:46N 45°29' E 036°37'0 0.0
2018-Feb-14 16:28N 45°29' E 036°37'0 0.0
2018-Feb-14 15:37N 45°29' E 036°37'0 0.0
2018-Feb-14 15:22N 45°29' E 036°37'0 0.0
2018-Feb-14 14:58N 45°29' E 036°37'0 0.0
2018-Feb-14 14:25N 45°29' E 036°37'0 0.8
2018-Feb-14 14:00N 45°29' E 036°37'5 9.1
2018-Feb-14 13:29N 45°31' E 036°43'  
Track history (hours):
 
Tides and Currents Weather Stations Pressure Air Temp Water Temp Dewpoint Dewpoint Depression Visibility Wind Speed Wind Dir Waves Ship Positions

Mekhanik Pogodin

Last reported at 2018-Feb-16 15:33 UTC. Time now 2018-Feb-18 03:39 UTC.
Position N 45°33' E 036°44'.

Length 141 m; draft 3.2 m.

Type: Ship (hazmat cat B). MMSI: 273354720.

Date/timePositionNaut miles runAvg speedWind from/ knotsBaromVisibWave heightAir tempDewpointWater temp
2018-Feb-16 15:33N 45°33' E 036°44'1 8.8
2018-Feb-16 15:28N 45°32' E 036°43'4 8.7
2018-Feb-16 15:00N 45°29' E 036°40'1 1.1
2018-Feb-16 14:28N 45°28' E 036°39'0 0.0
2018-Feb-16 13:58N 45°28' E 036°39'0 0.0
2018-Feb-16 13:28N 45°28' E 036°39'0 0.0
2018-Feb-16 12:58N 45°28' E 036°39'1 1.2
2018-Feb-16 12:30N 45°28' E 036°40'4 7.7
2018-Feb-16 12:00N 45°24' E 036°41'4 7.3
2018-Feb-16 11:30N 45°21' E 036°38'4 8.8
2018-Feb-16 11:00N 45°19' E 036°33'4 8.0
2018-Feb-16 10:30N 45°16' E 036°29'3 6.4
2018-Feb-16 10:00N 45°13' E 036°29'2 4.5
2018-Feb-16 09:28N 45°11' E 036°30'0 0.0
2018-Feb-16 08:43N 45°11' E 036°30'0 0.0
2018-Feb-16 08:25N 45°11' E 036°30'0 0.0
2018-Feb-16 07:55N 45°11' E 036°30'0 0.0
2018-Feb-16 04:33N 45°11' E 036°30'0 2.7
2018-Feb-16 04:29N 45°11' E 036°30'2 0.1
2018-Feb-15 00:00N 45°12' E 036°28'5 7.7
2018-Feb-14 23:20N 45°17' E 036°29'3 9.3
2018-Feb-14 23:00N 45°19' E 036°32'510.6
2018-Feb-14 22:31N 45°21' E 036°39'3 5.6
2018-Feb-14 22:00N 45°24' E 036°40'2 4.3
2018-Feb-14 21:30N 45°26' E 036°41'3 5.4
2018-Feb-14 21:00N 45°28' E 036°38'1 0.8
2018-Feb-14 19:49N 45°29' E 036°37'0 0.0
2018-Feb-14 19:19N 45°29' E 036°37'0 0.0
2018-Feb-14 18:58N 45°29' E 036°37'0 0.0
2018-Feb-14 18:28N 45°29' E 036°37'0 0.0
2018-Feb-14 17:22N 45°29' E 036°37'0 0.0
2018-Feb-14 16:46N 45°29' E 036°37'0 0.0
2018-Feb-14 16:28N 45°29' E 036°37'0 0.0
2018-Feb-14 15:37N 45°29' E 036°37'0 0.0
2018-Feb-14 15:22N 45°29' E 036°37'0 0.0
2018-Feb-14 14:58N 45°29' E 036°37'0 0.0
2018-Feb-14 14:25N 45°29' E 036°37'0 0.8
2018-Feb-14 14:00N 45°29' E 036°37'5 9.1
2018-Feb-14 13:29N 45°31' E 036°43'  

Dump ship's entire track history